createdAt,value
2018-09-06T00:00:13.654Z,36.60
2018-09-06T00:01:13.660Z,36.40
2018-09-06T00:02:13.671Z,38.00
2018-09-06T00:03:13.669Z,36.70
2018-09-06T00:04:13.668Z,39.00
2018-09-06T00:05:13.673Z,38.90
2018-09-06T00:06:13.687Z,39.20
2018-09-06T00:07:13.678Z,38.10
2018-09-06T00:08:13.679Z,38.50
2018-09-06T00:09:13.721Z,38.00
2018-09-06T00:10:13.700Z,38.60
2018-09-06T00:11:13.692Z,38.20
2018-09-06T00:12:13.704Z,38.40
2018-09-06T00:13:13.695Z,38.00
2018-09-06T00:14:13.716Z,38.40
2018-09-06T00:15:13.904Z,37.20
2018-09-06T00:16:13.705Z,37.70
2018-09-06T00:17:13.708Z,37.20
2018-09-06T00:18:13.711Z,37.00
2018-09-06T00:19:13.717Z,37.00
2018-09-06T00:20:13.750Z,36.40
2018-09-06T00:21:13.922Z,36.90
2018-09-06T00:22:13.739Z,36.00
2018-09-06T00:23:13.927Z,35.40
2018-09-06T00:24:13.734Z,35.30
2018-09-06T00:25:13.752Z,34.80
2018-09-06T00:26:13.939Z,34.10
2018-09-06T00:27:13.745Z,34.90
2018-09-06T00:28:13.960Z,34.40
2018-09-06T00:29:13.747Z,35.40
2018-09-06T00:30:13.947Z,35.10
2018-09-06T00:31:46.968Z,35.10
2018-09-06T00:32:13.764Z,34.80
2018-09-06T00:33:13.967Z,35.60
2018-09-06T00:34:13.758Z,35.10
2018-09-06T00:35:13.761Z,35.80
2018-09-06T00:36:13.763Z,35.10
2018-09-06T00:37:13.765Z,35.10
2018-09-06T00:38:13.991Z,36.10
2018-09-06T00:39:13.772Z,35.40
2018-09-06T00:40:13.778Z,36.00
2018-09-06T00:41:13.779Z,35.60
2018-09-06T00:42:13.793Z,34.40
2018-09-06T00:43:13.799Z,34.80
2018-09-06T00:44:14.002Z,35.30
2018-09-06T00:45:13.790Z,35.40
2018-09-06T00:46:13.791Z,36.00
2018-09-06T00:47:13.794Z,36.80
2018-09-06T00:48:13.797Z,36.00
2018-09-06T00:49:13.826Z,36.40
2018-09-06T00:50:13.799Z,35.10
2018-09-06T00:51:13.804Z,35.20
2018-09-06T00:52:13.807Z,35.60
2018-09-06T00:53:13.822Z,36.60
2018-09-06T00:54:13.822Z,36.30
2018-09-06T00:55:13.814Z,36.00
2018-09-06T00:56:13.817Z,35.80
2018-09-06T00:57:13.831Z,36.40
2018-09-06T00:58:13.830Z,36.40
2018-09-06T00:59:13.840Z,36.00
2018-09-06T01:00:13.836Z,35.00
2018-09-06T01:01:14.043Z,35.70
2018-09-06T01:02:13.834Z,34.70
2018-09-06T01:03:14.044Z,34.40
2018-09-06T01:04:14.063Z,35.90
2018-09-06T01:05:14.046Z,35.70
2018-09-06T01:06:13.854Z,34.50
2018-09-06T01:07:13.841Z,33.30
2018-09-06T01:08:13.860Z,34.40
2018-09-06T01:09:13.860Z,33.00
2018-09-06T01:10:14.050Z,34.30
2018-09-06T01:11:13.852Z,34.10
2018-09-06T01:12:13.854Z,33.80
2018-09-06T01:13:13.855Z,33.80
2018-09-06T01:14:13.867Z,34.50
2018-09-06T01:15:13.858Z,34.10
2018-09-06T01:16:14.078Z,33.50
2018-09-06T01:17:13.867Z,33.30
2018-09-06T01:18:13.867Z,34.40
2018-09-06T01:19:14.069Z,35.60
2018-09-06T01:20:14.079Z,36.10
2018-09-06T01:21:13.875Z,35.70
2018-09-06T01:22:13.885Z,35.10
2018-09-06T01:23:14.080Z,36.00
2018-09-06T01:24:13.885Z,35.50
2018-09-06T01:25:13.880Z,36.00
2018-09-06T01:26:13.882Z,36.10
2018-09-06T01:27:13.886Z,36.80
2018-09-06T01:28:13.907Z,36.40
2018-09-06T01:29:13.898Z,36.10
2018-09-06T01:30:13.906Z,34.50
2018-09-06T01:31:13.892Z,33.10
2018-09-06T01:32:13.895Z,34.20
2018-09-06T01:33:13.909Z,34.00
2018-09-06T01:34:13.928Z,32.80
2018-09-06T01:35:14.123Z,33.70
2018-09-06T01:36:13.906Z,33.70
2018-09-06T01:37:13.918Z,31.70
2018-09-06T01:38:13.925Z,32.80
2018-09-06T01:39:13.923Z,33.00
2018-09-06T01:40:13.913Z,32.20
2018-09-06T01:41:13.917Z,31.10
2018-09-06T01:42:14.122Z,31.30
2018-09-06T01:43:13.935Z,30.20
2018-09-06T01:44:13.933Z,31.60
2018-09-06T01:45:13.938Z,30.90
2018-09-06T01:46:13.927Z,31.20
2018-09-06T01:47:14.152Z,30.40
2018-09-06T01:48:14.133Z,30.80
2018-09-06T01:49:13.935Z,29.70
2018-09-06T01:50:13.944Z,29.50
2018-09-06T01:51:13.951Z,29.20
2018-09-06T01:52:13.952Z,29.50
2018-09-06T01:53:13.946Z,29.80
2018-09-06T01:54:13.947Z,27.90
2018-09-06T01:55:14.161Z,29.70
2018-09-06T01:56:14.157Z,29.70
2018-09-06T01:57:13.973Z,30.40
2018-09-06T01:58:14.161Z,30.90
2018-09-06T01:59:13.959Z,31.50
2018-09-06T02:00:13.972Z,30.70
2018-09-06T02:01:13.966Z,30.80
2018-09-06T02:02:13.969Z,31.70
2018-09-06T02:03:13.981Z,30.70
2018-09-06T02:04:13.976Z,31.60
2018-09-06T02:05:13.989Z,31.40
2018-09-06T02:06:13.990Z,31.80
2018-09-06T02:07:13.994Z,32.10
2018-09-06T02:08:13.986Z,32.70
2018-09-06T02:09:14.203Z,31.90
2018-09-06T02:10:14.195Z,31.20
2018-09-06T02:11:13.996Z,32.10
2018-09-06T02:12:13.998Z,31.80
2018-09-06T02:13:14.002Z,31.50
2018-09-06T02:14:14.208Z,29.70
2018-09-06T02:15:14.029Z,30.50
2018-09-06T02:16:14.011Z,31.50
2018-09-06T02:17:14.015Z,30.50
2018-09-06T02:18:14.015Z,30.60
2018-09-06T02:19:14.021Z,30.30
2018-09-06T02:20:14.032Z,31.20
2018-09-06T02:21:14.031Z,29.60
2018-09-06T02:22:14.029Z,30.20
2018-09-06T02:23:14.036Z,30.60
2018-09-06T02:24:14.049Z,30.30
2018-09-06T02:25:14.244Z,29.70
2018-09-06T02:26:14.041Z,30.30
2018-09-06T02:27:14.045Z,30.90
2018-09-06T02:28:14.059Z,30.00
2018-09-06T02:29:14.255Z,31.00
2018-09-06T02:30:14.307Z,29.20
2018-09-06T02:31:14.057Z,29.40
2018-09-06T02:32:14.075Z,30.40
2018-09-06T02:33:14.066Z,31.10
2018-09-06T02:34:14.295Z,29.90
2018-09-06T02:35:14.283Z,30.00
2018-09-06T02:36:14.088Z,31.00
2018-09-06T02:37:14.093Z,29.50
2018-09-06T02:38:14.282Z,30.10
2018-09-06T02:39:14.094Z,30.60
2018-09-06T02:40:14.110Z,31.00
2018-09-06T02:41:14.090Z,32.30
2018-09-06T02:42:14.119Z,31.90
2018-09-06T02:43:14.298Z,31.20
2018-09-06T02:44:14.112Z,31.50
2018-09-06T02:45:14.101Z,32.20
2018-09-06T02:46:14.118Z,32.90
2018-09-06T02:47:14.122Z,31.90
2018-09-06T02:48:14.123Z,32.30
2018-09-06T02:49:14.119Z,31.30
2018-09-06T02:50:14.125Z,32.60
2018-09-06T02:51:14.130Z,31.60
2018-09-06T02:52:14.123Z,29.80
2018-09-06T02:53:14.143Z,31.50
2018-09-06T02:54:14.329Z,31.80
2018-09-06T02:55:14.349Z,31.40
2018-09-06T02:56:14.133Z,32.60
2018-09-06T02:57:14.135Z,32.10
2018-09-06T02:58:14.168Z,34.10
2018-09-06T02:59:14.140Z,32.40
2018-09-06T03:00:14.153Z,32.80
2018-09-06T03:01:14.349Z,33.30
2018-09-06T03:02:14.163Z,34.90
2018-09-06T03:03:14.179Z,33.70
2018-09-06T03:04:14.357Z,34.40
2018-09-06T03:05:14.174Z,35.90
2018-09-06T03:06:14.160Z,36.60
2018-09-06T03:07:14.163Z,34.70
2018-09-06T03:08:14.164Z,35.30
2018-09-06T03:09:14.181Z,36.30
2018-09-06T03:10:14.172Z,35.80
2018-09-06T03:11:14.174Z,37.20
2018-09-06T03:12:14.189Z,37.30
2018-09-06T03:13:14.386Z,37.20
2018-09-06T03:14:14.182Z,38.70
2018-09-06T03:15:14.446Z,39.40
2018-09-06T03:16:14.189Z,38.40
2018-09-06T03:17:14.191Z,40.50
2018-09-06T03:18:14.396Z,40.80
2018-09-06T03:19:14.210Z,40.80
2018-09-06T03:20:14.402Z,41.10
2018-09-06T03:21:14.201Z,42.30
2018-09-06T03:22:14.225Z,44.30
2018-09-06T03:23:14.420Z,44.90
2018-09-06T03:24:14.217Z,43.10
2018-09-06T03:25:14.233Z,45.80
2018-09-06T03:26:14.212Z,45.70
2018-09-06T03:27:14.232Z,47.00
2018-09-06T03:28:14.220Z,46.20
2018-09-06T03:29:14.232Z,46.00
2018-09-06T03:30:14.229Z,46.30
2018-09-06T03:31:14.239Z,46.80
2018-09-06T03:32:14.241Z,46.40
2018-09-06T03:33:14.233Z,45.60
2018-09-06T03:34:14.243Z,45.90
2018-09-06T03:35:14.235Z,48.10
2018-09-06T03:36:14.236Z,47.00
2018-09-06T03:37:14.241Z,48.00
2018-09-06T03:38:14.456Z,47.40
2018-09-06T03:39:14.243Z,48.00
2018-09-06T03:40:14.265Z,45.80
2018-09-06T03:41:14.248Z,48.10
2018-09-06T03:42:14.279Z,47.50
2018-09-06T03:43:14.252Z,48.10
2018-09-06T03:44:14.256Z,47.30
2018-09-06T03:45:14.282Z,46.30
2018-09-06T03:46:14.261Z,46.70
2018-09-06T03:47:14.261Z,45.90
2018-09-06T03:48:14.480Z,46.20
2018-09-06T03:49:14.473Z,45.00
2018-09-06T03:50:14.296Z,46.90
2018-09-06T03:51:14.284Z,45.10
2018-09-06T03:52:14.278Z,45.20
2018-09-06T03:53:14.292Z,45.80
2018-09-06T03:54:14.278Z,46.10
2018-09-06T03:55:14.293Z,44.40
2018-09-06T03:56:14.297Z,45.30
2018-09-06T03:57:14.297Z,45.70
2018-09-06T03:58:14.301Z,45.20
2018-09-06T03:59:14.518Z,45.30
2018-09-06T04:00:14.319Z,45.90
2018-09-06T04:01:14.325Z,46.10
2018-09-06T04:02:14.300Z,45.10
2018-09-06T04:03:14.317Z,45.40
2018-09-06T04:04:14.538Z,44.40
2018-09-06T04:05:14.311Z,45.30
2018-09-06T04:06:14.528Z,47.40
2018-09-06T04:07:14.345Z,49.10
2018-09-06T04:08:14.532Z,48.00
2018-09-06T04:09:14.330Z,51.20
2018-09-06T04:10:14.338Z,48.30
2018-09-06T04:11:14.355Z,49.30
2018-09-06T04:12:14.339Z,51.80
2018-09-06T04:13:14.558Z,51.10
2018-09-06T04:14:14.347Z,49.40
2018-09-06T04:15:14.541Z,49.70
2018-09-06T04:16:14.366Z,50.00
2018-09-06T04:17:14.381Z,49.60
2018-09-06T04:18:14.349Z,48.40
2018-09-06T04:19:14.353Z,49.10
2018-09-06T04:20:14.357Z,52.80
2018-09-06T04:21:14.370Z,50.90
2018-09-06T04:22:14.562Z,53.60
2018-09-06T04:23:14.361Z,52.00
2018-09-06T04:24:14.634Z,51.90
2018-09-06T04:25:14.366Z,52.70
2018-09-06T04:26:14.373Z,55.40
2018-09-06T04:27:14.584Z,54.80
2018-09-06T04:28:14.581Z,56.00
2018-09-06T04:29:14.383Z,55.70
2018-09-06T04:30:14.584Z,54.10
2018-09-06T04:31:14.385Z,52.50
2018-09-06T04:32:14.388Z,51.00
2018-09-06T04:33:14.594Z,55.10
2018-09-06T04:34:14.406Z,55.60
2018-09-06T04:35:14.438Z,55.50
2018-09-06T04:36:14.426Z,55.20
2018-09-06T04:37:14.418Z,55.10
2018-09-06T04:38:14.608Z,53.90
2018-09-06T04:39:14.407Z,55.50
2018-09-06T04:40:14.450Z,55.50
2018-09-06T04:41:14.415Z,54.50
2018-09-06T04:42:14.419Z,53.40
2018-09-06T04:43:14.420Z,53.10
2018-09-06T04:44:14.638Z,51.80
2018-09-06T04:45:14.628Z,52.60
2018-09-06T04:46:14.636Z,51.50
2018-09-06T04:47:14.433Z,48.90
2018-09-06T04:48:14.435Z,51.80
2018-09-06T04:49:14.439Z,50.10
2018-09-06T04:50:14.445Z,50.20
2018-09-06T04:51:14.454Z,53.30
2018-09-06T04:52:14.456Z,53.80
2018-09-06T04:53:14.451Z,53.20
2018-09-06T04:54:14.454Z,53.10
2018-09-06T04:55:14.479Z,50.90
2018-09-06T04:56:14.462Z,51.90
2018-09-06T04:57:14.462Z,51.80
2018-09-06T04:58:14.491Z,48.80
2018-09-06T04:59:14.685Z,48.70
2018-09-06T05:00:14.485Z,51.10
2018-09-06T05:01:14.691Z,50.30
2018-09-06T05:02:14.501Z,50.80
2018-09-06T05:03:14.492Z,51.60
2018-09-06T05:04:14.512Z,49.00
2018-09-06T05:05:14.499Z,50.30
2018-09-06T05:06:14.490Z,52.00
2018-09-06T05:07:14.494Z,50.00
2018-09-06T05:08:14.507Z,51.60
2018-09-06T05:09:14.534Z,53.10
2018-09-06T05:10:14.717Z,49.00
2018-09-06T05:11:14.707Z,52.50
2018-09-06T05:12:14.711Z,50.30
2018-09-06T05:13:14.511Z,55.00
2018-09-06T05:14:14.516Z,55.00
2018-09-06T05:15:14.720Z,54.80
2018-09-06T05:16:14.520Z,57.00
2018-09-06T05:17:14.526Z,56.00
2018-09-06T05:18:14.525Z,56.10
2018-09-06T05:19:14.532Z,55.90
2018-09-06T05:20:14.534Z,55.40
2018-09-06T05:21:14.544Z,56.60
2018-09-06T05:22:14.540Z,53.50
2018-09-06T05:23:14.540Z,54.10
2018-09-06T05:24:14.543Z,54.20
2018-09-06T05:25:14.748Z,55.50
2018-09-06T05:26:14.549Z,55.40
2018-09-06T05:27:14.554Z,57.40
2018-09-06T05:28:14.553Z,53.80
2018-09-06T05:29:14.557Z,56.70
2018-09-06T05:30:14.559Z,60.20
2018-09-06T05:31:14.563Z,61.40
2018-09-06T05:32:14.569Z,61.20
2018-09-06T05:33:14.567Z,63.40
2018-09-06T05:34:14.772Z,61.10
2018-09-06T05:35:14.628Z,63.60
2018-09-06T05:36:14.724Z,64.60
2018-09-06T05:37:14.577Z,64.40
2018-09-06T05:38:14.579Z,65.50
2018-09-06T05:39:14.581Z,60.70
2018-09-06T05:40:14.594Z,62.40
2018-09-06T05:41:14.585Z,62.60
2018-09-06T05:42:14.588Z,61.90
2018-09-06T05:43:14.590Z,61.40
2018-09-06T05:44:14.592Z,59.70
2018-09-06T05:45:14.607Z,61.30
2018-09-06T05:46:14.818Z,60.40
2018-09-06T05:47:14.615Z,58.70
2018-09-06T05:48:14.835Z,57.50
2018-09-06T05:49:14.606Z,57.30
2018-09-06T05:50:14.812Z,57.40
2018-09-06T05:51:14.613Z,56.90
2018-09-06T05:52:14.814Z,54.10
2018-09-06T05:53:14.816Z,51.70
2018-09-06T05:54:14.626Z,48.40
2018-09-06T05:55:14.615Z,46.20
2018-09-06T05:56:14.625Z,47.80
2018-09-06T05:57:14.621Z,48.10
2018-09-06T05:58:14.842Z,48.90
2018-09-06T05:59:14.831Z,47.80
2018-09-06T06:00:14.639Z,50.60
2018-09-06T06:01:14.630Z,48.20
2018-09-06T06:02:14.634Z,47.80
2018-09-06T06:03:14.636Z,50.60
2018-09-06T06:04:14.639Z,51.80
2018-09-06T06:05:14.880Z,51.60
2018-09-06T06:06:14.644Z,51.40
2018-09-06T06:07:14.647Z,50.60
2018-09-06T06:08:14.852Z,51.10
2018-09-06T06:09:14.667Z,51.10
2018-09-06T06:10:14.650Z,49.60
2018-09-06T06:11:14.669Z,51.80
2018-09-06T06:12:14.669Z,49.80
2018-09-06T06:13:14.687Z,50.80
2018-09-06T06:14:14.686Z,52.80
2018-09-06T06:15:14.684Z,53.20
2018-09-06T06:16:14.676Z,53.40
2018-09-06T06:17:14.670Z,53.80
2018-09-06T06:18:14.668Z,53.20
2018-09-06T06:19:14.671Z,53.80
2018-09-06T06:20:14.676Z,53.20
2018-09-06T06:21:14.879Z,54.40
2018-09-06T06:22:14.753Z,53.40
2018-09-06T06:23:14.679Z,53.70
2018-09-06T06:24:14.683Z,51.40
2018-09-06T06:25:14.684Z,49.90
2018-09-06T06:26:14.688Z,49.20
2018-09-06T06:27:14.690Z,47.50
2018-09-06T06:28:14.702Z,47.60
2018-09-06T06:29:14.695Z,47.20
2018-09-06T06:30:14.695Z,46.50
2018-09-06T06:31:14.711Z,47.00
2018-09-06T06:32:14.716Z,46.80
2018-09-06T06:33:14.702Z,45.40
2018-09-06T06:34:14.909Z,47.50
2018-09-06T06:35:14.912Z,45.80
2018-09-06T06:36:14.720Z,46.30
2018-09-06T06:37:14.715Z,46.60
2018-09-06T06:38:14.714Z,46.20
2018-09-06T06:39:14.728Z,46.10
2018-09-06T06:40:14.732Z,47.20
2018-09-06T06:41:14.740Z,44.90
2018-09-06T06:42:14.725Z,46.40
2018-09-06T06:43:14.734Z,45.40
2018-09-06T06:44:14.748Z,44.90
2018-09-06T06:45:14.738Z,48.40
2018-09-06T06:46:14.736Z,48.40
2018-09-06T06:47:14.942Z,49.90
2018-09-06T06:48:14.752Z,48.40
2018-09-06T06:49:14.757Z,49.30
2018-09-06T06:50:14.816Z,48.70
2018-09-06T06:51:14.954Z,47.40
2018-09-06T06:52:14.766Z,48.30
2018-09-06T06:53:14.759Z,47.50
2018-09-06T06:54:14.772Z,44.70
2018-09-06T06:55:14.965Z,43.00
2018-09-06T06:56:14.763Z,44.80
2018-09-06T06:57:14.778Z,42.20
2018-09-06T06:58:14.768Z,40.80
2018-09-06T06:59:14.771Z,41.60
2018-09-06T07:00:14.774Z,43.10
2018-09-06T07:01:14.790Z,43.10
2018-09-06T07:02:14.780Z,42.20
2018-09-06T07:03:14.782Z,42.00
2018-09-06T07:04:14.855Z,42.40
2018-09-06T07:05:14.791Z,41.90
2018-09-06T07:06:14.792Z,42.80
2018-09-06T07:07:14.922Z,42.00
2018-09-06T07:08:14.999Z,42.50
2018-09-06T07:09:15.024Z,42.30
2018-09-06T07:10:14.817Z,42.00
2018-09-06T07:11:14.804Z,39.60
2018-09-06T07:12:14.825Z,42.50
2018-09-06T07:13:14.811Z,41.90
2018-09-06T07:14:14.815Z,43.00
2018-09-06T07:15:14.831Z,42.60
2018-09-06T07:16:14.820Z,42.60
2018-09-06T07:17:14.825Z,43.90
2018-09-06T07:18:14.928Z,42.40
2018-09-06T07:19:14.827Z,43.90
2018-09-06T07:20:14.845Z,43.30
2018-09-06T07:21:14.861Z,43.50
2018-09-06T07:22:15.056Z,43.40
2018-09-06T07:23:14.856Z,43.10
2018-09-06T07:24:14.856Z,41.50
2018-09-06T07:25:15.060Z,41.90
2018-09-06T07:26:15.067Z,43.50
2018-09-06T07:27:15.057Z,42.80
2018-09-06T07:28:14.857Z,42.40
2018-09-06T07:29:14.860Z,41.80
2018-09-06T07:30:14.879Z,42.00
2018-09-06T07:31:14.864Z,42.70
2018-09-06T07:32:14.869Z,43.50
2018-09-06T07:33:14.882Z,42.80
2018-09-06T07:34:15.078Z,40.70
2018-09-06T07:35:14.915Z,41.00
2018-09-06T07:36:14.879Z,41.20
2018-09-06T07:37:14.915Z,41.00
2018-09-06T07:38:14.889Z,39.40
2018-09-06T07:39:15.108Z,42.30
2018-09-06T07:40:14.905Z,40.50
2018-09-06T07:41:14.944Z,42.40
2018-09-06T07:42:14.929Z,41.10
2018-09-06T07:43:14.918Z,42.00
2018-09-06T07:44:14.928Z,41.50
2018-09-06T07:45:15.115Z,41.90
2018-09-06T07:46:14.927Z,41.00
2018-09-06T07:47:14.926Z,41.10
2018-09-06T07:48:14.922Z,42.10
2018-09-06T07:49:14.921Z,40.80
2018-09-06T07:50:14.938Z,41.30
2018-09-06T07:51:14.928Z,43.10
2018-09-06T07:52:15.165Z,42.20
2018-09-06T07:53:15.137Z,40.90
2018-09-06T07:54:14.939Z,40.60
2018-09-06T07:55:14.943Z,41.80
2018-09-06T07:56:14.969Z,41.00
2018-09-06T07:57:14.947Z,42.80
2018-09-06T07:58:14.974Z,43.70
2018-09-06T07:59:14.970Z,44.00
2018-09-06T08:00:14.970Z,42.00
2018-09-06T08:01:14.984Z,41.90
2018-09-06T08:02:14.966Z,40.10
2018-09-06T08:03:15.173Z,40.40
2018-09-06T08:04:14.982Z,40.10
2018-09-06T08:05:14.988Z,39.90
2018-09-06T08:06:15.204Z,40.60
2018-09-06T08:07:15.193Z,39.60
2018-09-06T08:08:14.983Z,38.80
2018-09-06T08:09:14.987Z,39.30
2018-09-06T08:10:15.203Z,38.20
2018-09-06T08:11:15.212Z,39.50
2018-09-06T08:12:15.000Z,38.20
2018-09-06T08:13:15.012Z,40.30
2018-09-06T08:14:15.004Z,38.00
2018-09-06T08:15:15.208Z,38.90
2018-09-06T08:16:15.021Z,39.10
2018-09-06T08:17:15.243Z,39.00
2018-09-06T08:18:15.220Z,37.90
2018-09-06T08:19:15.232Z,36.00
2018-09-06T08:20:15.227Z,38.20
2018-09-06T08:21:15.042Z,39.10
2018-09-06T08:22:15.255Z,38.00
2018-09-06T08:23:15.059Z,38.60
2018-09-06T08:24:15.114Z,38.60
2018-09-06T08:25:15.051Z,38.00
2018-09-06T08:26:15.042Z,37.90
2018-09-06T08:27:15.047Z,38.00
2018-09-06T08:28:15.252Z,36.00
2018-09-06T08:29:15.266Z,34.90
2018-09-06T08:30:15.058Z,35.60
2018-09-06T08:31:15.343Z,36.30
2018-09-06T08:32:15.092Z,37.90
2018-09-06T08:33:15.296Z,37.30
2018-09-06T08:34:15.100Z,36.30
2018-09-06T08:35:15.071Z,37.00
2018-09-06T08:36:15.093Z,37.40
2018-09-06T08:37:15.094Z,36.40
2018-09-06T08:38:15.101Z,35.60
2018-09-06T08:39:15.291Z,36.10
2018-09-06T08:40:15.091Z,35.90
2018-09-06T08:41:15.093Z,36.90
2018-09-06T08:42:15.117Z,37.90
2018-09-06T08:43:15.114Z,36.80
2018-09-06T08:44:15.117Z,36.90
2018-09-06T08:45:15.134Z,36.30
2018-09-06T08:46:15.108Z,35.80
2018-09-06T08:47:15.139Z,36.90
2018-09-06T08:48:15.116Z,36.30
2018-09-06T08:49:15.119Z,35.90
2018-09-06T08:50:15.326Z,36.00
2018-09-06T08:51:15.138Z,35.20
2018-09-06T08:52:15.134Z,36.20
2018-09-06T08:53:15.133Z,35.40
2018-09-06T08:54:15.137Z,36.50
2018-09-06T08:55:15.141Z,35.30
2018-09-06T08:56:15.347Z,36.50
2018-09-06T08:57:15.150Z,36.40
2018-09-06T08:58:15.149Z,35.50
2018-09-06T08:59:15.167Z,37.00
2018-09-06T09:00:15.158Z,35.30
2018-09-06T09:01:15.162Z,35.60
2018-09-06T09:02:15.272Z,35.60
2018-09-06T09:03:15.185Z,36.80
2018-09-06T09:04:15.174Z,38.10
2018-09-06T09:05:15.178Z,37.70
2018-09-06T09:06:15.178Z,37.90
2018-09-06T09:07:15.182Z,37.90
2018-09-06T09:08:15.240Z,36.20
2018-09-06T09:09:15.191Z,37.00
2018-09-06T09:10:15.195Z,37.70
2018-09-06T09:11:15.196Z,37.40
2018-09-06T09:12:15.199Z,36.60
2018-09-06T09:13:15.290Z,37.50
2018-09-06T09:14:15.216Z,37.60
2018-09-06T09:15:15.211Z,36.30
2018-09-06T09:16:15.274Z,39.00
2018-09-06T09:17:15.216Z,38.10
2018-09-06T09:18:15.225Z,38.30
2018-09-06T09:19:15.236Z,38.20
2018-09-06T09:20:15.239Z,37.30
2018-09-06T09:21:15.232Z,37.20
2018-09-06T09:22:15.301Z,35.70
2018-09-06T09:23:15.459Z,34.40
2018-09-06T09:24:15.241Z,34.50
2018-09-06T09:25:15.248Z,34.00
2018-09-06T09:26:15.459Z,34.40
2018-09-06T09:27:15.253Z,33.70
2018-09-06T09:28:15.254Z,34.20
2018-09-06T09:29:15.257Z,34.10
2018-09-06T09:30:15.270Z,33.30
2018-09-06T09:31:15.477Z,34.40
2018-09-06T09:32:15.279Z,35.70
2018-09-06T09:33:15.278Z,34.40
2018-09-06T09:34:15.277Z,33.20
2018-09-06T09:35:15.278Z,32.90
2018-09-06T09:36:15.288Z,34.20
2018-09-06T09:37:15.489Z,34.00
2018-09-06T09:38:15.512Z,32.10
2018-09-06T09:39:15.306Z,33.50
2018-09-06T09:40:15.309Z,33.00
2018-09-06T09:41:15.299Z,33.70
2018-09-06T09:42:15.320Z,33.20
2018-09-06T09:43:15.348Z,32.50
2018-09-06T09:44:15.529Z,30.80
2018-09-06T09:45:15.315Z,31.50
2018-09-06T09:48:14.377Z,30.60
2018-09-06T09:49:14.373Z,30.70
2018-09-06T09:50:54.470Z,30.50
2018-09-06T09:51:54.276Z,30.40
2018-09-06T09:52:54.467Z,29.30
2018-09-06T09:53:54.277Z,29.30
2018-09-06T09:54:54.281Z,29.20
2018-09-06T09:55:54.273Z,29.70
2018-09-06T09:56:54.358Z,29.50
2018-09-06T09:57:54.284Z,27.90
2018-09-06T09:58:54.298Z,27.10
2018-09-06T09:59:54.293Z,28.30
2018-09-06T10:00:54.292Z,29.00
2018-09-06T10:01:54.293Z,29.00
2018-09-06T10:02:54.303Z,30.10
2018-09-06T10:03:54.308Z,28.80
2018-09-06T10:04:54.328Z,30.40
2018-09-06T10:05:54.308Z,31.30
2018-09-06T10:06:54.317Z,32.10
2018-09-06T10:07:54.316Z,30.40
2018-09-06T10:08:54.331Z,31.20
2018-09-06T10:09:54.324Z,32.00
2018-09-06T10:10:54.324Z,32.00
2018-09-06T10:11:54.532Z,34.00
2018-09-06T10:12:54.334Z,33.70
2018-09-06T10:13:54.538Z,34.30
2018-09-06T10:14:54.344Z,34.80
2018-09-06T10:15:54.546Z,36.30
2018-09-06T10:16:54.347Z,36.20
2018-09-06T10:17:54.552Z,36.30
2018-09-06T10:18:54.364Z,36.70
2018-09-06T10:19:54.559Z,37.10
2018-09-06T10:20:54.361Z,37.30
2018-09-06T10:21:54.564Z,38.30
2018-09-06T10:22:54.368Z,37.80
2018-09-06T10:23:54.371Z,37.50
2018-09-06T10:24:54.378Z,38.10
2018-09-06T10:25:54.391Z,37.50
2018-09-06T10:26:54.582Z,39.30
2018-09-06T10:27:54.588Z,38.70
2018-09-06T10:28:54.590Z,37.10
2018-09-06T10:29:54.393Z,35.90
2018-09-06T10:30:54.396Z,37.60
2018-09-06T10:31:54.399Z,38.00
2018-09-06T10:32:54.409Z,37.60
2018-09-06T10:33:54.434Z,35.40
2018-09-06T10:34:54.610Z,34.90
2018-09-06T10:35:54.423Z,35.40
2018-09-06T10:36:54.430Z,34.00
2018-09-06T10:37:54.423Z,35.20
2018-09-06T10:38:54.427Z,35.60
2018-09-06T10:39:54.463Z,35.20
2018-09-06T10:40:54.442Z,36.30
2018-09-06T10:41:54.445Z,37.90
2018-09-06T10:42:54.459Z,38.60
2018-09-06T10:43:54.657Z,38.30
2018-09-06T10:44:54.670Z,35.40
2018-09-06T10:45:54.661Z,35.80
2018-09-06T10:46:54.452Z,37.70
2018-09-06T10:47:54.534Z,37.10
2018-09-06T10:48:54.484Z,36.10
2018-09-06T10:49:54.472Z,38.20
2018-09-06T10:50:54.476Z,37.70
2018-09-06T10:51:54.670Z,36.20
2018-09-06T10:52:54.471Z,36.60
2018-09-06T10:53:54.474Z,37.40
2018-09-06T10:54:54.679Z,36.90
2018-09-06T10:55:54.483Z,37.70
2018-09-06T10:56:54.494Z,36.50
2018-09-06T10:57:54.499Z,36.60
2018-09-06T10:58:54.510Z,37.00
2018-09-06T10:59:54.495Z,37.50
2018-09-06T11:00:54.511Z,39.60
2018-09-06T11:01:54.515Z,39.60
2018-09-06T11:02:54.506Z,39.90
2018-09-06T11:03:54.736Z,37.90
2018-09-06T11:04:54.512Z,38.60
2018-09-06T11:05:54.521Z,38.30
2018-09-06T11:06:54.518Z,39.20
2018-09-06T11:07:54.569Z,38.30
2018-09-06T11:08:54.528Z,38.80
2018-09-06T11:09:54.526Z,38.60
2018-09-06T11:10:54.545Z,39.80
2018-09-06T11:11:54.539Z,38.90
2018-09-06T11:12:54.539Z,38.90
2018-09-06T11:13:54.751Z,38.90
2018-09-06T11:14:54.604Z,39.10
2018-09-06T11:15:54.551Z,38.60
2018-09-06T11:16:54.760Z,39.40
2018-09-06T11:17:54.592Z,39.50
2018-09-06T11:18:54.558Z,39.50
2018-09-06T11:19:54.776Z,39.70
2018-09-06T11:20:54.567Z,42.70
2018-09-06T11:21:54.952Z,41.90
2018-09-06T11:22:54.573Z,41.80
2018-09-06T11:23:54.578Z,42.80
2018-09-06T11:24:54.580Z,44.30
2018-09-06T11:25:54.585Z,45.00
2018-09-06T11:26:54.801Z,44.20
2018-09-06T11:27:54.597Z,44.70
2018-09-06T11:28:54.596Z,44.00
2018-09-06T11:29:54.597Z,42.90
2018-09-06T11:30:54.601Z,43.60
2018-09-06T11:31:54.624Z,42.40
2018-09-06T11:32:54.609Z,42.90
2018-09-06T11:33:54.612Z,40.90
2018-09-06T11:34:54.628Z,41.60
2018-09-06T11:35:54.621Z,40.80
2018-09-06T11:36:54.644Z,39.10
2018-09-06T11:37:54.627Z,40.40
2018-09-06T11:38:54.639Z,41.00
2018-09-06T11:39:54.648Z,39.00
2018-09-06T11:40:54.837Z,41.40
2018-09-06T11:41:54.649Z,41.60
2018-09-06T11:42:54.655Z,40.80
2018-09-06T11:43:54.675Z,41.60
2018-09-06T11:44:54.671Z,40.80
2018-09-06T11:45:54.653Z,42.30
2018-09-06T11:46:55.005Z,40.80
2018-09-06T11:47:54.688Z,42.20
2018-09-06T11:48:54.680Z,41.70
2018-09-06T11:49:54.901Z,42.40
2018-09-06T11:50:54.669Z,42.00
2018-09-06T11:51:54.674Z,43.90
2018-09-06T11:52:54.688Z,45.00
2018-09-06T11:53:54.895Z,43.70
2018-09-06T11:54:54.694Z,45.40
2018-09-06T11:55:54.700Z,46.00
2018-09-06T11:56:54.690Z,45.70
2018-09-06T11:57:54.705Z,46.10
2018-09-06T11:58:54.712Z,46.80
2018-09-06T11:59:54.715Z,47.00
2018-09-06T12:00:54.908Z,46.90
2018-09-06T12:01:54.711Z,48.10
2018-09-06T12:02:54.929Z,46.70
2018-09-06T12:03:54.724Z,46.90
2018-09-06T12:04:54.944Z,47.60
2018-09-06T12:05:54.743Z,48.40
2018-09-06T12:06:54.928Z,47.30
2018-09-06T12:07:54.743Z,48.80
2018-09-06T12:08:54.960Z,48.70
2018-09-06T12:09:54.734Z,47.40
2018-09-06T12:10:54.737Z,49.20
2018-09-06T12:11:54.742Z,46.60
2018-09-06T12:12:54.750Z,46.40
2018-09-06T12:13:54.986Z,47.10
2018-09-06T12:14:54.778Z,48.30
2018-09-06T12:15:54.757Z,49.00
2018-09-06T12:16:54.761Z,49.00
2018-09-06T12:17:54.821Z,46.50
2018-09-06T12:18:54.794Z,47.60
2018-09-06T12:19:54.781Z,49.30
2018-09-06T12:20:54.772Z,48.80
2018-09-06T12:21:54.776Z,50.00
2018-09-06T12:22:54.778Z,48.80
2018-09-06T12:23:54.815Z,48.60
2018-09-06T12:24:54.796Z,45.80
2018-09-06T12:25:54.791Z,47.50
2018-09-06T12:26:54.795Z,48.20
2018-09-06T12:27:54.808Z,47.50
2018-09-06T12:28:54.808Z,46.70
2018-09-06T12:29:54.807Z,47.10
2018-09-06T12:30:54.807Z,46.60
2018-09-06T12:31:54.813Z,46.80
2018-09-06T12:32:54.819Z,48.30
2018-09-06T12:33:54.844Z,49.40
2018-09-06T12:34:54.819Z,51.20
2018-09-06T12:35:54.825Z,52.10
2018-09-06T12:36:54.837Z,51.30
2018-09-06T12:37:54.831Z,52.50
2018-09-06T12:38:54.833Z,52.60
2018-09-06T12:39:54.851Z,53.20
2018-09-06T12:40:54.841Z,52.50
2018-09-06T12:41:54.861Z,52.30
2018-09-06T12:42:55.063Z,54.80
2018-09-06T12:43:55.066Z,53.40
2018-09-06T12:44:55.062Z,54.10
2018-09-06T12:45:54.862Z,52.60
2018-09-06T12:46:54.893Z,53.20
2018-09-06T12:47:54.891Z,54.90
2018-09-06T12:48:54.882Z,52.70
2018-09-06T12:49:54.884Z,52.60
2018-09-06T12:50:54.887Z,51.70
2018-09-06T12:51:54.933Z,52.80
2018-09-06T12:52:54.905Z,50.40
2018-09-06T12:53:54.890Z,52.40
2018-09-06T12:54:54.893Z,52.40